Time;durP1;ratioP1;P1;durP2;ratioP2;P2;SDS_P1;SDS_P2;PMS_P1;PMS_P2;Temp;Humidity;BMP_temperature;BMP_pressure;BME280_temperature;BME280_humidity;BME280_pressure;Samples;Min_cycle;Max_cycle;Signal;HPM_P1;HPM_P2
2022/06/21 00:01:18;;;;;;;9.05;6.32;;;10.90;99.90;;;;;;5053872;28;20025;-65
2022/06/21 00:03:46;;;;;;;10.73;6.20;;;10.80;99.90;;;;;;5055065;28;20029;-64
2022/06/21 00:06:15;;;;;;;9.55;6.57;;;10.70;99.90;;;;;;5054801;28;20103;-65
2022/06/21 00:08:40;;;;;;;12.40;7.18;;;10.60;99.90;;;;;;5055089;28;20428;-65
2022/06/21 00:11:28;;;;;;;9.75;6.07;;;10.60;99.90;;;;;;5055222;28;20035;-65
2022/06/21 00:13:54;;;;;;;7.60;5.97;;;10.60;99.90;;;;;;5054903;28;20029;-65
2022/06/21 00:16:21;;;;;;;9.45;6.63;;;10.50;99.90;;;;;;5055123;28;20033;-65
2022/06/21 00:18:48;;;;;;;16.77;6.57;;;10.50;99.90;;;;;;5055030;28;20116;-65
2022/06/21 00:21:17;;;;;;;13.65;6.60;;;10.40;99.90;;;;;;5055014;28;20032;-65
2022/06/21 00:23:43;;;;;;;15.20;6.38;;;10.30;99.90;;;;;;5054954;28;20033;-65
2022/06/21 00:26:12;;;;;;;7.25;5.88;;;10.30;99.90;;;;;;5054565;28;20036;-65
2022/06/21 00:28:39;;;;;;;15.40;7.50;;;10.20;99.90;;;;;;5053648;28;20017;-64
2022/06/21 00:31:14;;;;;;;10.38;7.20;;;10.20;99.90;;;;;;5054804;28;20448;-65
2022/06/21 00:33:39;;;;;;;14.93;7.38;;;10.20;99.90;;;;;;5054430;28;20067;-65
2022/06/21 00:36:14;;;;;;;15.07;8.13;;;10.10;99.90;;;;;;5054716;28;20060;-65
2022/06/21 00:38:40;;;;;;;12.15;7.38;;;10.10;99.90;;;;;;5054554;28;20031;-65
2022/06/21 00:41:08;;;;;;;13.07;6.95;;;10.00;99.90;;;;;;5054385;28;20029;-65
2022/06/21 00:43:40;;;;;;;13.25;7.90;;;10.00;99.90;;;;;;5054321;28;20031;-65
2022/06/21 00:46:33;;;;;;;10.53;7.37;;;9.90;99.90;;;;;;5054197;28;20116;-64
2022/06/21 00:49:02;;;;;;;14.43;8.23;;;9.90;99.90;;;;;;5054353;28;20021;-65
2022/06/21 00:51:36;;;;;;;14.13;8.13;;;9.80;99.90;;;;;;5054437;28;20052;-65
2022/06/21 00:54:25;;;;;;;10.98;8.23;;;9.80;99.90;;;;;;5054154;28;20025;-65
2022/06/21 00:57:00;;;;;;;14.55;7.63;;;9.80;99.90;;;;;;5054332;28;20449;-64
2022/06/21 00:59:30;;;;;;;14.05;7.38;;;9.70;99.90;;;;;;5054278;28;20376;-65
2022/06/21 01:02:01;;;;;;;10.60;7.78;;;9.70;99.90;;;;;;5053991;28;20027;-65
2022/06/21 01:04:35;;;;;;;14.05;9.00;;;9.60;99.90;;;;;;5054160;28;20472;-64
2022/06/21 01:07:05;;;;;;;12.70;7.72;;;9.60;99.90;;;;;;5052900;28;20049;-64
2022/06/21 01:09:38;;;;;;;15.85;8.40;;;9.60;99.90;;;;;;5053902;28;20027;-64
2022/06/21 01:12:27;;;;;;;15.57;8.45;;;9.60;99.90;;;;;;5054079;28;20052;-65
2022/06/21 01:15:00;;;;;;;15.38;9.27;;;9.60;99.90;;;;;;5053708;28;20025;-64
2022/06/21 01:17:28;;;;;;;14.38;8.30;;;9.50;99.90;;;;;;5053978;28;20390;-64
2022/06/21 01:20:01;;;;;;;13.40;8.40;;;9.40;99.90;;;;;;5053727;28;20380;-64
2022/06/21 01:23:07;;;;;;;16.38;9.05;;;9.50;99.90;;;;;;5053677;28;20013;-64
2022/06/21 01:25:47;;;;;;;14.30;8.52;;;9.40;99.90;;;;;;5053283;28;20067;-65
2022/06/21 01:28:13;;;;;;;17.42;9.82;;;9.40;99.90;;;;;;5052383;28;20021;-65
2022/06/21 01:30:43;;;;;;;14.32;9.40;;;9.40;99.90;;;;;;5053448;28;20104;-65
2022/06/21 01:33:12;;;;;;;15.02;9.60;;;9.40;99.90;;;;;;5053695;28;20448;-65
2022/06/21 01:35:48;;;;;;;11.15;8.60;;;9.40;99.90;;;;;;5053381;28;20037;-65
2022/06/21 01:38:20;;;;;;;11.88;8.35;;;9.30;99.90;;;;;;5053357;28;20029;-65
2022/06/21 01:40:50;;;;;;;15.50;9.27;;;9.20;99.90;;;;;;5052187;28;20056;-65
2022/06/21 01:43:22;;;;;;;15.23;9.90;;;9.30;99.90;;;;;;5053523;28;20060;-65
2022/06/21 01:45:52;;;;;;;17.98;10.43;;;9.20;99.90;;;;;;5051984;28;20025;-65
2022/06/21 01:48:26;;;;;;;13.35;8.82;;;9.20;99.90;;;;;;5053196;28;20032;-65
2022/06/21 01:50:59;;;;;;;15.80;9.75;;;9.10;99.90;;;;;;5053409;28;20021;-65
2022/06/21 01:53:25;;;;;;;19.42;11.05;;;9.20;99.90;;;;;;5053284;28;20032;-65
2022/06/21 01:55:58;;;;;;;14.02;9.18;;;9.20;99.90;;;;;;5053388;28;20114;-65
2022/06/21 01:58:27;;;;;;;14.52;9.27;;;9.10;99.90;;;;;;5053341;28;20112;-65
2022/06/21 02:00:59;;;;;;;16.80;9.73;;;9.10;99.90;;;;;;5053384;28;20459;-65
2022/06/21 02:03:33;;;;;;;14.68;10.00;;;9.00;99.90;;;;;;5053148;28;20048;-65
2022/06/21 02:06:04;;;;;;;15.52;9.95;;;9.00;99.90;;;;;;5052892;28;20040;-65
2022/06/21 02:08:39;;;;;;;12.07;8.85;;;9.00;99.90;;;;;;5053259;28;20028;-65
2022/06/21 02:11:10;;;;;;;14.57;9.00;;;8.90;99.90;;;;;;5053039;28;20013;-65
2022/06/21 02:13:42;;;;;;;13.23;8.75;;;8.90;99.90;;;;;;5053222;28;20490;-65
2022/06/21 02:16:13;;;;;;;11.35;8.77;;;8.90;99.90;;;;;;5053203;28;20430;-65
2022/06/21 02:18:43;;;;;;;12.90;9.80;;;8.90;99.90;;;;;;5052941;28;20386;-65
2022/06/21 02:21:19;;;;;;;12.23;9.88;;;8.80;99.90;;;;;;5052936;28;20025;-65
2022/06/21 02:23:51;;;;;;;14.05;10.57;;;8.80;99.90;;;;;;5053130;28;20040;-65
2022/06/21 02:26:17;;;;;;;15.00;10.35;;;8.80;99.90;;;;;;5053067;28;20510;-64
2022/06/21 02:28:43;;;;;;;13.13;10.10;;;8.80;99.90;;;;;;5053077;28;20026;-65
2022/06/21 02:31:09;;;;;;;15.57;10.18;;;8.80;99.90;;;;;;5053056;28;20551;-65
2022/06/21 02:33:37;;;;;;;21.83;12.07;;;8.70;99.90;;;;;;5052728;28;20017;-65
2022/06/21 02:36:15;;;;;;;16.05;11.20;;;8.70;99.90;;;;;;5053012;28;20529;-65
2022/06/21 02:38:46;;;;;;;15.43;11.25;;;8.70;99.90;;;;;;5052981;28;20025;-65
2022/06/21 02:41:18;;;;;;;14.65;9.95;;;8.70;99.90;;;;;;5052977;28;20100;-64
2022/06/21 02:43:49;;;;;;;15.48;9.93;;;8.60;99.90;;;;;;5052716;28;20021;-64
2022/06/21 02:46:20;;;;;;;14.43;10.10;;;8.60;99.90;;;;;;5052603;28;20107;-65
2022/06/21 02:48:52;;;;;;;15.40;11.45;;;8.60;99.90;;;;;;5052638;28;20159;-65
2022/06/21 02:51:23;;;;;;;17.27;12.05;;;8.70;99.90;;;;;;5052864;28;20428;-64
2022/06/21 02:54:15;;;;;;;21.88;12.13;;;8.70;99.90;;;;;;5056491;28;20499;-65
2022/06/21 02:56:47;;;;;;;13.40;10.55;;;8.60;99.90;;;;;;5056624;28;20029;-64
2022/06/21 02:59:13;;;;;;;19.63;12.40;;;8.60;99.90;;;;;;5056536;28;20033;-65
2022/06/21 03:01:44;;;;;;;16.40;11.90;;;8.60;99.90;;;;;;5056221;28;20025;-65
2022/06/21 03:04:18;;;;;;;13.98;10.68;;;8.60;99.90;;;;;;5056176;28;20541;-64
2022/06/21 03:06:44;;;;;;;14.27;11.52;;;8.60;99.90;;;;;;5055920;28;20474;-64
2022/06/21 03:09:15;;;;;;;21.40;11.48;;;8.60;99.90;;;;;;5056399;28;20491;-64
2022/06/21 03:11:44;;;;;;;19.73;12.25;;;8.60;99.90;;;;;;5056123;28;20511;-65
2022/06/21 03:14:15;;;;;;;16.33;11.10;;;8.60;99.90;;;;;;5056059;28;20027;-65
2022/06/21 03:16:42;;;;;;;16.98;11.07;;;8.50;99.90;;;;;;5056010;28;20060;-65
2022/06/21 03:19:19;;;;;;;18.70;10.38;;;8.60;99.90;;;;;;5056188;28;20033;-65
2022/06/21 03:21:45;;;;;;;14.27;10.18;;;8.60;99.90;;;;;;5056170;28;20440;-65
2022/06/21 03:24:17;;;;;;;18.50;11.32;;;8.60;99.90;;;;;;5056128;28;20055;-65
2022/06/21 03:26:48;;;;;;;16.67;10.90;;;8.60;99.90;;;;;;5055963;28;20061;-64
2022/06/21 03:29:13;;;;;;;15.35;11.32;;;8.60;99.90;;;;;;5055795;28;20028;-65
2022/06/21 03:31:44;;;;;;;15.63;11.52;;;8.70;99.90;;;;;;5055954;28;20029;-64
2022/06/21 03:34:15;;;;;;;16.85;11.98;;;8.70;99.90;;;;;;5055711;28;20021;-64
2022/06/21 03:36:41;;;;;;;18.92;12.30;;;8.80;99.90;;;;;;5055840;28;20483;-64
2022/06/21 03:39:14;;;;;;;16.75;11.63;;;8.80;99.90;;;;;;5055892;28;20395;-65
2022/06/21 03:41:43;;;;;;;;;;;8.90;99.90;;;;;;5056195;28;20472;-65
2022/06/21 03:44:24;;;;;;;16.88;11.30;;;8.90;99.90;;;;;;5055699;28;19909;-65
2022/06/21 03:46:58;;;;;;;19.42;13.50;;;9.00;99.90;;;;;;5055373;28;20021;-64
2022/06/21 03:49:33;;;;;;;19.42;13.15;;;9.10;99.90;;;;;;5055354;28;20021;-65
2022/06/21 03:52:05;;;;;;;26.70;14.43;;;9.10;99.90;;;;;;5055641;28;20467;-65
2022/06/21 03:54:39;;;;;;;19.58;11.82;;;9.20;99.90;;;;;;5055582;28;20044;-66
2022/06/21 03:57:29;;;;;;;24.65;12.80;;;9.30;99.90;;;;;;5055608;28;20055;-65
2022/06/21 04:00:12;;;;;;;22.73;14.38;;;9.30;99.90;;;;;;5054232;28;20154;-65
2022/06/21 04:03:02;;;;;;;17.90;13.05;;;9.40;99.90;;;;;;5055299;28;20029;-65
2022/06/21 04:05:34;;;;;;;20.13;12.85;;;9.50;99.90;;;;;;5054884;28;20450;-65
2022/06/21 04:08:13;;;;;;;17.10;13.07;;;9.60;99.90;;;;;;5055348;28;20531;-65
2022/06/21 04:10:51;;;;;;;17.85;12.98;;;9.70;99.90;;;;;;5055239;28;20255;-65
2022/06/21 04:13:35;;;;;;;22.25;12.85;;;9.70;99.90;;;;;;5055087;28;20044;-65
2022/06/21 04:16:25;;;;;;;14.07;11.93;;;9.90;99.90;;;;;;5053877;28;20033;-66
2022/06/21 04:19:14;;;;;;;19.15;11.85;;;10.00;99.90;;;;;;5054822;28;20548;-65
2022/06/21 04:21:49;;;;;;;16.80;11.55;;;10.10;99.90;;;;;;5054693;28;20029;-64
2022/06/21 04:24:38;;;;;;;19.83;12.82;;;10.30;99.90;;;;;;5054957;28;20033;-65
2022/06/21 04:27:10;;;;;;;19.30;11.65;;;10.50;99.90;;;;;;5054512;28;20047;-64
2022/06/21 04:29:44;;;;;;;18.55;12.65;;;10.70;99.90;;;;;;5054884;28;20076;-64
2022/06/21 04:32:21;;;;;;;20.98;12.40;;;11.00;99.90;;;;;;5054811;28;20025;-65
2022/06/21 04:35:02;;;;;;;13.73;11.13;;;11.90;99.90;;;;;;5054760;28;20438;-65
2022/06/21 04:37:38;;;;;;;13.63;8.55;;;12.80;99.90;;;;;;5054715;28;20037;-65
2022/06/21 04:40:16;;;;;;;14.30;7.82;;;13.40;99.90;;;;;;5054464;28;20565;-65
2022/06/21 04:42:52;;;;;;;12.95;7.10;;;14.30;99.90;;;;;;5053300;28;20029;-66
2022/06/21 04:45:31;;;;;;;10.15;5.70;;;16.00;99.90;;;;;;5054487;28;20514;-67
2022/06/21 04:48:24;;;;;;;7.28;5.00;;;17.60;99.90;;;;;;5054506;28;20035;-66
2022/06/21 04:51:00;;;;;;;7.80;5.10;;;18.50;99.90;;;;;;5054077;28;20025;-67
2022/06/21 04:53:38;;;;;;;8.50;5.05;;;19.90;99.90;;;;;;5054393;28;20545;-67
2022/06/21 04:56:14;;;;;;;9.70;4.65;;;20.70;99.90;;;;;;5054111;28;20108;-67
2022/06/21 04:58:41;;;;;;;5.18;4.00;;;21.40;99.90;;;;;;5054324;28;20502;-67
2022/06/21 05:01:37;;;;;;;7.70;3.92;;;21.60;99.90;;;;;;5054259;28;20025;-64
2022/06/21 05:03:52;;;;;;;10.32;4.68;;;21.60;99.90;;;;;;5053800;28;20029;-65
2022/06/21 05:06:18;;;;;;;7.70;3.70;;;22.10;99.90;;;;;;5053635;28;20585;-64
2022/06/21 05:08:48;;;;;;;6.78;3.75;;;22.30;98.80;;;;;;5053876;28;20107;-64
2022/06/21 05:11:14;;;;;;;6.47;4.03;;;22.70;97.30;;;;;;5054049;28;20029;-64
2022/06/21 05:13:44;;;;;;;6.10;3.22;;;22.80;96.30;;;;;;5054040;28;20025;-65
2022/06/21 05:16:16;;;;;;;5.80;3.67;;;23.30;97.50;;;;;;5053435;28;20029;-65
2022/06/21 05:18:46;;;;;;;5.28;3.20;;;23.10;94.30;;;;;;5053877;28;20029;-65
2022/06/21 05:21:16;;;;;;;6.85;3.58;;;22.60;94.00;;;;;;5053938;28;20529;-64
2022/06/21 05:23:42;;;;;;;7.43;3.55;;;22.10;94.60;;;;;;5053872;28;20475;-64
2022/06/21 05:26:24;;;;;;;8.05;3.72;;;22.40;96.20;;;;;;5053663;28;20142;-64
2022/06/21 05:28:57;;;;;;;7.28;3.55;;;22.50;94.70;;;;;;5053809;28;20435;-64
2022/06/21 05:31:26;;;;;;;6.50;2.90;;;23.10;93.80;;;;;;5053487;28;20057;-64
2022/06/21 05:33:57;;;;;;;7.30;2.88;;;23.90;91.30;;;;;;5053604;28;20090;-64
2022/06/21 05:37:03;;;;;;;12.48;2.95;;;24.10;91.60;;;;;;5053368;28;20024;-64
2022/06/21 05:39:37;;;;;;;6.95;2.50;;;24.70;88.90;;;;;;5053146;28;20539;-64
2022/06/21 05:42:04;;;;;;;10.48;2.92;;;25.30;83.90;;;;;;5052092;28;20075;-64
2022/06/21 05:44:35;;;;;;;6.80;2.95;;;25.40;83.20;;;;;;5053698;28;20382;-64
2022/06/21 05:47:14;;;;;;;7.93;2.50;;;24.50;82.90;;;;;;5052065;28;20025;-64
2022/06/21 05:49:41;;;;;;;6.75;2.92;;;23.20;89.70;;;;;;5053419;28;20053;-64
2022/06/21 05:52:15;;;;;;;7.57;2.50;;;22.40;91.10;;;;;;5053227;28;20028;-64
2022/06/21 05:54:46;;;;;;;6.13;2.53;;;22.30;91.70;;;;;;5053379;28;20034;-65
2022/06/21 05:57:17;;;;;;;5.45;2.25;;;23.50;91.20;;;;;;5053133;28;20036;-65
2022/06/21 05:59:43;;;;;;;11.45;3.00;;;24.20;86.40;;;;;;5051695;28;20495;-65
2022/06/21 06:02:18;;;;;;;10.18;3.10;;;24.40;86.80;;;;;;5053072;28;20033;-65
2022/06/21 06:04:57;;;;;;;9.23;2.80;;;24.10;88.30;;;;;;5052892;28;20479;-65
2022/06/21 06:07:29;;;;;;;10.80;2.85;;;25.30;86.50;;;;;;5052981;28;20025;-65
2022/06/21 06:09:58;;;;;;;6.93;3.47;;;24.30;85.90;;;;;;5053318;28;20028;-65
2022/06/21 06:12:31;;;;;;;9.00;3.20;;;24.40;87.50;;;;;;5052893;28;20035;-65
2022/06/21 06:15:07;;;;;;;7.72;2.50;;;25.00;84.40;;;;;;5053198;28;20032;-65
2022/06/21 06:23:22;;;;;;;6.63;2.60;;;25.20;84.10;;;;;;5090896;28;20402;-67
2022/06/21 06:25:53;;;;;;;6.80;2.35;;;25.40;83.60;;;;;;5090582;28;20036;-67
2022/06/21 06:28:34;;;;;;;7.80;2.42;;;25.70;81.20;;;;;;5090886;28;20052;-65
2022/06/21 06:31:22;;;;;;;7.70;2.13;;;26.10;79.30;;;;;;5090842;28;20470;-67
2022/06/21 06:33:55;;;;;;;6.88;2.25;;;26.10;80.10;;;;;;5089274;28;20482;-66
2022/06/21 06:36:24;;;;;;;10.95;2.05;;;25.70;78.40;;;;;;5090738;28;20112;-67
2022/06/21 06:38:50;;;;;;;9.20;2.53;;;25.90;79.30;;;;;;5090681;28;20479;-66
2022/06/21 06:41:28;;;;;;;5.93;2.05;;;25.80;77.20;;;;;;5090573;28;20031;-66
2022/06/21 06:43:57;;;;;;;7.90;2.80;;;25.90;76.50;;;;;;5090327;28;20467;-66
2022/06/21 06:46:30;;;;;;;8.50;2.40;;;25.70;78.50;;;;;;5090459;28;20078;-66
2022/06/21 06:49:20;;;;;;;6.95;2.42;;;26.00;78.70;;;;;;5089025;28;20063;-66
2022/06/21 06:52:09;;;;;;;8.68;2.28;;;27.20;73.70;;;;;;5088974;28;20063;-66
2022/06/21 06:54:49;;;;;;;7.43;2.35;;;27.50;70.70;;;;;;5089125;28;20020;-66
2022/06/21 06:57:37;;;;;;;7.65;2.30;;;27.20;68.60;;;;;;5088285;28;20039;-66
2022/06/21 07:00:15;;;;;;;8.23;2.33;;;27.50;67.80;;;;;;5088240;28;20070;-66
2022/06/21 07:02:48;;;;;;;6.53;2.47;;;27.70;67.60;;;;;;5078202;28;20055;-65
2022/06/21 07:05:29;;;;;;;5.18;2.13;;;26.60;68.90;;;;;;5068027;28;20028;-66
2022/06/21 07:08:02;;;;;;;8.10;2.50;;;26.50;70.80;;;;;;5080443;28;20063;-66
2022/06/21 07:10:28;;;;;;;7.65;2.72;;;25.70;71.90;;;;;;5085546;28;20024;-66
2022/06/21 07:12:55;;;;;;;5.50;2.17;;;26.30;70.60;;;;;;5068555;28;20035;-66
2022/06/21 07:15:35;;;;;;;6.68;2.30;;;26.50;70.50;;;;;;5078985;28;20024;-66
2022/06/21 07:18:02;;;;;;;6.05;1.95;;;26.50;71.00;;;;;;5089166;28;20041;-65
2022/06/21 07:20:39;;;;;;;6.30;2.30;;;25.90;71.60;;;;;;5076856;28;20047;-66
2022/06/21 07:23:14;;;;;;;8.02;2.17;;;26.00;71.00;;;;;;5069492;28;20114;-66
2022/06/21 07:25:46;;;;;;;11.02;2.22;;;26.40;71.30;;;;;;5069250;28;20096;-67
2022/06/21 07:28:21;;;;;;;6.73;1.97;;;26.80;68.40;;;;;;5094346;28;20102;-67
2022/06/21 07:30:51;;;;;;;7.00;2.28;;;26.20;70.60;;;;;;5069594;28;20785;-66
2022/06/21 07:33:25;;;;;;;8.93;1.88;;;25.90;67.90;;;;;;5061692;28;20075;-66
2022/06/21 07:35:57;;;;;;;6.57;2.17;;;26.70;68.10;;;;;;5068995;28;20025;-67
2022/06/21 07:38:32;;;;;;;7.63;2.17;;;26.80;69.20;;;;;;5072268;28;20043;-66
2022/06/21 07:41:05;;;;;;;9.85;2.30;;;27.60;67.30;;;;;;5074577;28;20379;-66
2022/06/21 07:43:39;;;;;;;5.53;1.70;;;27.50;64.10;;;;;;5075022;28;20724;-66
2022/06/21 07:46:08;;;;;;;6.53;1.73;;;25.80;67.30;;;;;;5074830;28;20033;-66
2022/06/21 07:48:56;;;;;;;6.65;1.83;;;27.00;66.10;;;;;;5074503;28;20017;-66
2022/06/21 07:51:26;;;;;;;6.82;1.70;;;27.20;66.50;;;;;;5075426;28;20016;-66
2022/06/21 07:54:01;;;;;;;5.95;1.70;;;28.20;63.50;;;;;;5073642;28;20497;-66
2022/06/21 07:56:34;;;;;;;6.88;1.83;;;28.00;63.50;;;;;;5063242;28;20020;-66
2022/06/21 07:59:05;;;;;;;5.55;1.75;;;27.90;61.30;;;;;;5074429;28;20025;-66
2022/06/21 08:07:29;;;;;;;6.80;1.63;;;27.20;64.10;;;;;;5062677;28;20038;-66
2022/06/21 08:10:02;;;;;;;5.07;1.70;;;27.30;65.10;;;;;;5073276;28;20021;-65
2022/06/21 08:12:27;;;;;;;5.07;1.40;;;26.70;64.30;;;;;;5075225;28;20391;-65
2022/06/21 08:14:53;;;;;;;6.10;1.73;;;27.00;64.30;;;;;;5073051;28;20024;-66
2022/06/21 08:17:42;;;;;;;4.15;1.50;;;27.70;60.60;;;;;;5054854;28;20033;-66
2022/06/21 08:20:18;;;;;;;5.50;1.20;;;27.50;59.60;;;;;;5054939;28;20050;-65
2022/06/21 08:22:47;;;;;;;7.55;1.73;;;27.80;59.30;;;;;;5054162;28;20040;-65
2022/06/21 08:25:30;;;;;;;7.20;1.70;;;26.60;61.10;;;;;;5066173;28;20033;-65
2022/06/21 08:28:00;;;;;;;7.22;2.33;;;26.10;67.20;;;;;;5074943;28;20071;-65
2022/06/21 08:30:35;;;;;;;5.55;1.60;;;25.50;66.30;;;;;;5072417;28;20082;-65
2022/06/21 08:33:08;;;;;;;6.57;1.83;;;26.40;65.50;;;;;;5055820;28;20502;-65
2022/06/21 08:35:39;;;;;;;;;;;26.40;63.30;;;;;;5067853;28;20107;-66
2022/06/21 08:38:13;;;;;;;5.00;1.45;;;25.60;66.30;;;;;;5073315;28;19914;-66
2022/06/21 08:44:12;;;;;;;5.35;1.65;;;25.60;65.70;;;;;;5172144;27;20107;-66
2022/06/21 08:47:09;;;;;;;6.57;1.60;;;26.50;66.60;;;;;;5130948;28;20027;-65
2022/06/21 08:50:07;;;;;;;4.57;1.48;;;26.40;64.00;;;;;;5147724;27;20540;-65
2022/06/21 08:52:59;;;;;;;5.38;1.58;;;26.80;62.90;;;;;;5136455;27;20404;-66
2022/06/21 08:56:04;;;;;;;4.30;1.42;;;27.50;59.10;;;;;;5131153;28;20031;-66
2022/06/21 08:59:10;;;;;;;3.17;1.55;;;27.40;60.10;;;;;;5137452;27;20031;-66
2022/06/21 09:01:52;;;;;;;2.45;0.98;;;27.00;59.20;;;;;;5151296;27;20027;-65
2022/06/21 09:04:44;;;;;;;4.25;1.73;;;27.50;59.40;;;;;;5161314;27;20031;-66
2022/06/21 09:07:43;;;;;;;5.05;1.77;;;27.10;60.20;;;;;;5150946;27;20480;-66
2022/06/21 09:10:36;;;;;;;5.45;1.45;;;26.00;66.20;;;;;;5161053;27;20026;-66
2022/06/21 09:13:30;;;;;;;5.57;1.88;;;27.20;62.90;;;;;;5150652;27;20031;-66
2022/06/21 09:16:12;;;;;;;5.95;1.63;;;26.70;61.70;;;;;;5151683;27;20109;-66
2022/06/21 09:21:53;;;;;;;5.40;1.40;;;25.30;60.80;;;;;;5110783;27;20453;-66
2022/06/21 09:24:42;;;;;;;4.40;1.30;;;24.80;63.00;;;;;;5104897;28;20522;-65
2022/06/21 09:27:22;;;;;;;4.10;1.27;;;25.80;62.20;;;;;;5096261;28;20028;-65
2022/06/21 09:30:14;;;;;;;5.25;1.10;;;27.20;56.40;;;;;;5110602;28;20024;-65
2022/06/21 09:35:45;;;;;;;2.60;1.08;;;27.80;56.40;;;;;;5102277;27;20380;-66
2022/06/21 09:38:21;;;;;;;2.30;0.93;;;28.10;55.00;;;;;;5090134;28;20031;-66
2022/06/21 09:44:04;;;;;;;2.70;1.10;;;27.90;52.80;;;;;;5111314;27;20137;-65
2022/06/21 09:47:03;;;;;;;3.42;1.00;;;27.70;52.70;;;;;;5108525;28;20031;-65
2022/06/21 09:49:51;;;;;;;3.38;0.90;;;26.40;55.80;;;;;;5110372;28;20123;-65
2022/06/21 09:52:34;;;;;;;2.72;1.08;;;26.90;56.20;;;;;;5090280;28;20071;-65
2022/06/21 09:55:15;;;;;;;4.70;1.48;;;26.80;57.30;;;;;;5091362;28;20103;-65
2022/06/21 09:58:07;;;;;;;3.35;1.02;;;27.90;57.00;;;;;;5090300;28;20377;-65
2022/06/21 10:01:01;;;;;;;3.00;1.50;;;27.90;57.90;;;;;;5096794;28;20028;-65
2022/06/21 10:03:53;;;;;;;6.57;2.35;;;28.50;57.00;;;;;;5093028;28;20114;-65
2022/06/21 10:06:46;;;;;;;5.38;1.65;;;28.30;56.10;;;;;;5108229;28;20031;-65
2022/06/21 10:09:51;;;;;;;2.22;1.30;;;27.80;54.50;;;;;;5103875;28;20032;-65
2022/06/21 10:15:39;;;;;;;4.40;1.13;;;25.60;58.60;;;;;;5104525;27;1187644;-65
2022/06/21 10:18:34;;;;;;;5.45;1.13;;;25.20;59.70;;;;;;5129814;27;20038;-66
2022/06/21 10:21:24;;;;;;;2.70;1.10;;;25.60;58.60;;;;;;5126574;27;20065;-66
2022/06/21 10:24:17;;;;;;;3.95;1.65;;;26.00;57.60;;;;;;5127302;28;20050;-66
2022/06/21 10:30:01;;;;;;;3.50;1.00;;;26.60;56.00;;;;;;5068296;28;20137;-65
2022/06/21 10:33:06;;;;;;;4.47;1.00;;;26.50;55.20;;;;;;5040628;28;20484;-65
2022/06/21 10:38:43;;;;;;;5.80;1.20;;;26.30;55.10;;;;;;5092703;27;20375;-65
2022/06/21 10:41:34;;;;;;;4.95;1.15;;;25.30;58.10;;;;;;5070008;28;20106;-66
2022/06/21 10:46:50;;;;;;;3.85;1.05;;;25.30;57.30;;;;;;5090449;28;20356;-65
2022/06/21 10:49:55;;;;;;;4.35;1.40;;;26.60;58.00;;;;;;5089442;28;20067;-64
2022/06/21 10:52:46;;;;;;;3.05;1.25;;;26.10;56.60;;;;;;5089780;28;20021;-65
2022/06/21 10:55:38;;;;;;;5.07;1.02;;;25.60;61.50;;;;;;5089511;28;20035;-64
2022/06/21 10:58:43;;;;;;;3.63;1.45;;;25.10;59.80;;;;;;5089279;28;20024;-64
2022/06/21 11:01:21;;;;;;;1.98;0.82;;;24.90;62.20;;;;;;5090120;28;20425;-64
2022/06/21 11:04:28;;;;;;;6.40;1.58;;;24.50;63.00;;;;;;5089218;28;20658;-65
2022/06/21 11:07:20;;;;;;;4.68;1.33;;;24.70;59.80;;;;;;5088298;28;20048;-64
2022/06/21 11:13:05;;;;;;;2.83;0.95;;;24.50;60.30;;;;;;5110830;27;20105;-65
2022/06/21 11:15:44;;;;;;;3.75;1.10;;;24.20;61.60;;;;;;5090399;28;20028;-65
2022/06/21 11:18:37;;;;;;;3.65;1.08;;;24.40;63.00;;;;;;5090415;28;20467;-64
2022/06/21 11:21:42;;;;;;;3.53;1.10;;;25.00;61.80;;;;;;5090346;28;20032;-65
2022/06/21 11:24:27;;;;;;;6.88;1.60;;;24.80;59.80;;;;;;5101988;28;20034;-65
2022/06/21 11:27:04;;;;;;;2.55;1.15;;;24.50;60.70;;;;;;5109691;28;20032;-65
2022/06/21 11:30:03;;;;;;;3.95;1.30;;;24.70;59.90;;;;;;5109465;28;20055;-65
2022/06/21 11:33:07;;;;;;;4.13;1.15;;;24.10;60.10;;;;;;5109276;28;20028;-65
2022/06/21 11:35:55;;;;;;;4.63;1.23;;;23.90;61.20;;;;;;5110405;28;20461;-64
2022/06/21 11:38:42;;;;;;;3.88;0.98;;;23.70;61.60;;;;;;5109178;28;20023;-64
2022/06/21 11:42:04;;;;;;;3.35;1.20;;;23.60;62.40;;;;;;5109984;28;20031;-65
2022/06/21 11:44:58;;;;;;;5.43;1.60;;;24.10;62.60;;;;;;5089787;28;20032;-65
2022/06/21 11:47:55;;;;;;;3.17;1.23;;;23.70;61.30;;;;;;5093257;28;20114;-65
2022/06/21 11:50:25;;;;;;;3.58;1.20;;;24.10;62.30;;;;;;5091829;28;20029;-64
2022/06/21 11:53:20;;;;;;;2.47;1.30;;;24.00;62.00;;;;;;5122369;27;20044;-65
2022/06/21 11:56:09;;;;;;;2.90;1.10;;;23.80;59.90;;;;;;5089397;28;20031;-65
2022/06/21 11:58:42;;;;;;;3.38;1.30;;;24.40;60.20;;;;;;5101801;28;20042;-65
2022/06/21 12:01:42;;;;;;;2.50;1.00;;;24.60;60.30;;;;;;5108609;28;20077;-65
2022/06/21 12:04:34;;;;;;;4.18;1.30;;;24.30;61.30;;;;;;5109533;28;20413;-65
2022/06/21 12:07:24;;;;;;;2.92;1.10;;;24.40;59.90;;;;;;5109133;28;20028;-65
2022/06/21 12:09:56;;;;;;;3.00;1.15;;;24.60;59.40;;;;;;5089593;28;20393;-65
2022/06/21 12:13:01;;;;;;;3.42;1.20;;;24.00;59.50;;;;;;5090012;28;20522;-65
2022/06/21 12:15:45;;;;;;;4.70;1.13;;;24.00;59.30;;;;;;5108643;28;20030;-65
2022/06/21 12:18:22;;;;;;;3.25;1.45;;;23.90;58.90;;;;;;5108470;28;20488;-65
2022/06/21 12:20:55;;;;;;;3.28;1.10;;;23.90;59.40;;;;;;5104175;28;20089;-65
2022/06/21 12:23:31;;;;;;;;;;;23.70;60.10;;;;;;5086569;28;20155;-64
2022/06/21 12:25:57;;;;;;;2.13;1.17;;;23.70;59.90;;;;;;5095808;28;19954;-65
2022/06/21 12:28:26;;;;;;;1.45;0.90;;;23.50;60.20;;;;;;5094675;28;20060;-65
2022/06/21 12:30:52;;;;;;;5.30;1.10;;;23.90;59.90;;;;;;5094794;28;20064;-65
2022/06/21 12:33:22;;;;;;;3.67;0.90;;;24.10;61.00;;;;;;5094394;28;20024;-65
2022/06/21 12:36:00;;;;;;;4.55;1.17;;;24.10;62.70;;;;;;5095849;28;20052;-65
2022/06/21 12:38:35;;;;;;;3.08;0.95;;;24.00;60.70;;;;;;5092372;28;20016;-64
2022/06/21 12:41:35;;;;;;;1.40;1.20;;;23.90;58.30;;;;;;5094468;28;20103;-64
2022/06/21 12:44:32;;;;;;;3.22;1.00;;;23.50;58.10;;;;;;5077064;28;20024;-64
2022/06/21 12:50:29;;;;;;;3.00;1.02;;;23.30;61.00;;;;;;5093359;27;20409;-65
2022/06/21 12:53:21;;;;;;;2.95;1.38;;;23.90;59.00;;;;;;5090219;28;20115;-65
2022/06/21 12:56:05;;;;;;;3.20;1.23;;;24.00;58.60;;;;;;5069912;28;20029;-65
2022/06/21 12:58:59;;;;;;;3.22;1.17;;;23.40;60.50;;;;;;5080112;28;20020;-64
2022/06/21 13:01:36;;;;;;;2.55;1.17;;;22.90;60.60;;;;;;5089958;28;20035;-64
2022/06/21 13:04:32;;;;;;;3.53;1.30;;;22.70;61.80;;;;;;5088448;28;20035;-64
2022/06/21 13:07:27;;;;;;;3.45;1.00;;;22.90;61.90;;;;;;5088293;28;20028;-64
2022/06/21 13:10:32;;;;;;;3.53;1.25;;;23.00;61.50;;;;;;5088982;28;20032;-65
2022/06/21 13:13:37;;;;;;;1.88;1.10;;;23.30;61.70;;;;;;5089109;28;20028;-65
2022/06/21 13:16:17;;;;;;;2.00;1.02;;;23.80;61.40;;;;;;5089217;28;20063;-65
2022/06/21 13:22:13;;;;;;;4.05;1.10;;;24.40;61.80;;;;;;5100831;27;20367;-66
2022/06/21 13:25:06;;;;;;;2.17;0.95;;;24.10;60.30;;;;;;5095830;28;20111;-66
2022/06/21 13:27:59;;;;;;;2.80;1.33;;;24.20;60.90;;;;;;5089361;28;20024;-65
2022/06/21 13:30:47;;;;;;;3.58;1.35;;;24.00;61.00;;;;;;5090278;28;20077;-66
2022/06/21 13:36:02;;;;;;;2.10;1.13;;;24.10;61.30;;;;;;5070285;28;20357;-65
2022/06/21 13:38:47;;;;;;;5.05;1.35;;;24.00;59.20;;;;;;5060360;28;20033;-65
2022/06/21 13:44:18;;;;;;;2.63;1.10;;;24.60;61.20;;;;;;5049634;28;20035;-66
2022/06/21 13:46:50;;;;;;;2.72;1.40;;;25.20;59.60;;;;;;5062498;28;20029;-65
2022/06/21 13:49:21;;;;;;;4.45;1.30;;;25.00;57.40;;;;;;5057870;28;20112;-66
2022/06/21 13:51:58;;;;;;;2.95;1.20;;;24.90;59.40;;;;;;5050309;28;20108;-66
2022/06/21 13:58:02;;;;;;;2.67;1.30;;;24.70;59.20;;;;;;5091674;28;20467;-65
2022/06/21 14:00:46;;;;;;;2.45;1.27;;;24.90;58.00;;;;;;5076502;28;20021;-65
2022/06/21 14:03:33;;;;;;;2.28;1.30;;;25.30;57.40;;;;;;5070433;28;20021;-66
2022/06/21 14:06:12;;;;;;;3.65;1.60;;;25.30;58.40;;;;;;5085028;28;20406;-65
2022/06/21 14:08:42;;;;;;;1.75;1.15;;;25.30;58.50;;;;;;5087882;28;20368;-65
2022/06/21 14:11:26;;;;;;;4.57;1.60;;;24.90;58.60;;;;;;5090147;28;20036;-65
2022/06/21 14:14:08;;;;;;;1.63;1.00;;;24.90;58.40;;;;;;5089120;28;20038;-65
2022/06/21 14:16:48;;;;;;;2.40;1.30;;;24.80;59.80;;;;;;5087754;28;20107;-65
2022/06/21 14:19:23;;;;;;;3.45;1.08;;;24.40;60.60;;;;;;5050019;28;20029;-65
2022/06/21 14:22:04;;;;;;;3.72;1.42;;;24.50;61.20;;;;;;5059408;28;20044;-65
2022/06/21 14:24:48;;;;;;;3.00;1.60;;;24.70;59.80;;;;;;5089818;28;20539;-65
2022/06/21 14:27:26;;;;;;;5.15;1.60;;;24.60;63.10;;;;;;5079605;28;20032;-65
2022/06/21 14:30:00;;;;;;;3.90;1.60;;;24.40;63.10;;;;;;5048421;28;20029;-65
2022/06/21 14:32:49;;;;;;;3.38;1.55;;;24.40;63.30;;;;;;5067507;28;20076;-64
2022/06/21 14:35:24;;;;;;;4.45;1.40;;;24.40;63.30;;;;;;5087600;28;20036;-65
2022/06/21 14:38:00;;;;;;;3.08;1.52;;;24.30;63.00;;;;;;5088725;28;20024;-65